Time;durP1;ratioP1;P1;durP2;ratioP2;P2;SDS_P1;SDS_P2;PMS_P1;PMS_P2;Temp;Humidity;BMP_temperature;BMP_pressure;BME280_temperature;BME280_humidity;BME280_pressure;Samples;Min_cycle;Max_cycle;Signal;HPM_P1;HPM_P2
2024/03/21 00:00:30;;;;;;;15.45;9.45;;;;;;;;;;6208277;23;20760;-95
2024/03/21 00:02:56;;;;;;;14.75;8.75;;;;;;;;;;6208923;23;20029;-94
2024/03/21 00:05:21;;;;;;;19.33;10.27;;;;;;;;;;6208581;23;20414;-92
2024/03/21 00:07:47;;;;;;;15.98;9.07;;;;;;;;;;6208435;23;20001;-94
2024/03/21 00:10:19;;;;;;;19.50;10.63;;;;;;;;;;6209072;23;20297;-95
2024/03/21 00:12:44;;;;;;;;;;;;;;;;;;6208800;23;20035;-94
2024/03/21 00:15:10;;;;;;;17.08;10.05;;;;;;;;;;6183488;23;19903;-94
2024/03/21 00:17:36;;;;;;;18.20;9.52;;;;;;;;;;6208327;23;20005;-95
2024/03/21 00:20:03;;;;;;;19.58;10.35;;;;;;;;;;6208249;23;20015;-95
2024/03/21 00:22:29;;;;;;;17.48;9.43;;;;;;;;;;6208356;23;20450;-94
2024/03/21 00:24:54;;;;;;;16.63;10.25;;;;;;;;;;6208338;23;19997;-95
2024/03/21 00:27:19;;;;;;;19.03;10.60;;;;;;;;;;6208433;23;20332;-94
2024/03/21 00:29:44;;;;;;;17.37;10.40;;;;;;;;;;6207622;23;20230;-94
2024/03/21 00:32:10;;;;;;;17.92;10.75;;;;;;;;;;6129049;23;20231;-96
2024/03/21 00:34:36;;;;;;;23.40;12.20;;;;;;;;;;6128959;23;20001;-95
2024/03/21 00:37:01;;;;;;;21.15;10.70;;;;;;;;;;6128792;23;20013;-94
2024/03/21 00:39:26;;;;;;;18.67;10.70;;;;;;;;;;6128833;23;20113;-94
2024/03/21 00:41:51;;;;;;;19.70;10.85;;;;;;;;;;6129223;23;20017;-95
2024/03/21 00:44:17;;;;;;;17.88;10.57;;;;;;;;;;6129101;23;20491;-94
2024/03/21 00:46:42;;;;;;;21.90;11.23;;;;;;;;;;6128508;23;20012;-96
2024/03/21 00:49:08;;;;;;;16.80;11.20;;;;;;;;;;6155204;23;20097;-95
2024/03/21 00:51:34;;;;;;;21.42;12.20;;;;;;;;;;6128741;23;20085;-94
2024/03/21 00:53:59;;;;;;;19.08;10.70;;;;;;;;;;6128920;23;20002;-94
2024/03/21 00:56:25;;;;;;;20.50;12.05;;;;;;;;;;6128611;23;20005;-95
2024/03/21 00:58:51;;;;;;;22.13;11.98;;;;;;;;;;6128679;23;19997;-94
2024/03/21 01:01:16;;;;;;;20.65;11.77;;;;;;;;;;6129082;23;20035;-94
2024/03/21 01:03:42;;;;;;;22.00;13.15;;;;;;;;;;6128419;23;19989;-94
2024/03/21 01:06:07;;;;;;;24.08;13.27;;;;;;;;;;6128662;23;20008;-95
2024/03/21 01:08:32;;;;;;;25.88;13.52;;;;;;;;;;6128790;23;19998;-94
2024/03/21 01:10:58;;;;;;;24.20;13.20;;;;;;;;;;6128782;23;20520;-94
2024/03/21 01:13:23;;;;;;;23.45;13.07;;;;;;;;;;6128523;23;20373;-94
2024/03/21 01:15:48;;;;;;;21.92;12.70;;;;;;;;;;6128522;23;20006;-94
2024/03/21 01:18:14;;;;;;;23.90;13.87;;;;;;;;;;6154524;23;20424;-94
2024/03/21 01:20:40;;;;;;;22.45;13.43;;;;;;;;;;6128378;23;20737;-94
2024/03/21 01:23:06;;;;;;;24.55;13.65;;;;;;;;;;6154831;23;20001;-94
2024/03/21 01:25:31;;;;;;;23.77;14.20;;;;;;;;;;6154416;23;19998;-94
2024/03/21 01:27:58;;;;;;;26.23;14.18;;;;;;;;;;6152747;23;19994;-94
2024/03/21 01:30:23;;;;;;;28.83;14.18;;;;;;;;;;6141021;23;20051;-94
2024/03/21 01:32:48;;;;;;;28.52;15.00;;;;;;;;;;6208038;23;20084;-94
2024/03/21 01:35:13;;;;;;;27.20;15.10;;;;;;;;;;6207692;23;20336;-94
2024/03/21 01:37:39;;;;;;;22.38;13.65;;;;;;;;;;6207562;23;20681;-94
2024/03/21 01:40:06;;;;;;;27.73;16.13;;;;;;;;;;6207773;23;20052;-94
2024/03/21 01:42:31;;;;;;;28.80;14.65;;;;;;;;;;6207552;23;20285;-94
2024/03/21 01:45:01;;;;;;;26.55;14.05;;;;;;;;;;6207605;23;20363;-93
2024/03/21 01:47:27;;;;;;;24.65;13.43;;;;;;;;;;6207797;23;20001;-94
2024/03/21 01:49:53;;;;;;;27.25;14.82;;;;;;;;;;6208242;23;19997;-94
2024/03/21 01:52:18;;;;;;;22.40;12.25;;;;;;;;;;6209803;23;20001;-94
2024/03/21 01:54:44;;;;;;;22.70;12.95;;;;;;;;;;6209201;23;20081;-92
2024/03/21 01:57:09;;;;;;;27.70;13.68;;;;;;;;;;6209434;23;20007;-94
2024/03/21 01:59:35;;;;;;;23.02;12.82;;;;;;;;;;6185461;23;20076;-93
2024/03/21 02:02:00;;;;;;;25.13;13.53;;;;;;;;;;6184868;23;20009;-92
2024/03/21 02:04:25;;;;;;;26.00;13.32;;;;;;;;;;6208993;23;20226;-92
2024/03/21 02:06:52;;;;;;;26.40;13.25;;;;;;;;;;6185404;23;19997;-92
2024/03/21 02:09:21;;;;;;;18.23;10.90;;;;;;;;;;6185490;23;20001;-92
2024/03/21 02:11:46;;;;;;;26.75;11.25;;;;;;;;;;6185789;23;20059;-92
2024/03/21 02:14:12;;;;;;;19.83;10.60;;;;;;;;;;6185295;23;20424;-92
2024/03/21 02:16:38;;;;;;;24.90;12.45;;;;;;;;;;6185265;23;19997;-92
2024/03/21 02:19:03;;;;;;;24.13;12.00;;;;;;;;;;6185443;23;20047;-92
2024/03/21 02:24:12;;;;;;;22.42;11.57;;;;;;;;;;6185152;23;20709;-93
2024/03/21 02:26:37;;;;;;;22.95;12.02;;;;;;;;;;6183559;23;20001;-92
2024/03/21 02:29:05;;;;;;;22.07;12.13;;;;;;;;;;6183713;23;20426;-92
2024/03/21 02:31:30;;;;;;;23.20;12.38;;;;;;;;;;6162540;23;20235;-93
2024/03/21 02:33:55;;;;;;;15.48;9.73;;;;;;;;;;6129209;23;20242;-92
2024/03/21 02:36:20;;;;;;;20.63;10.37;;;;;;;;;;6153738;23;19997;-92
2024/03/21 02:38:46;;;;;;;17.65;9.95;;;;;;;;;;6129455;23;20293;-91
2024/03/21 02:41:11;;;;;;;23.63;11.53;;;;;;;;;;6154986;23;20033;-92
2024/03/21 02:43:36;;;;;;;19.85;9.70;;;;;;;;;;6130054;23;20262;-95
2024/03/21 02:46:01;;;;;;;16.70;9.70;;;;;;;;;;6156365;23;20005;-96
2024/03/21 02:48:29;;;;;;;16.55;9.18;;;;;;;;;;6156793;23;20226;-96
2024/03/21 02:50:54;;;;;;;25.58;11.95;;;;;;;;;;6154912;23;20436;-94
2024/03/21 02:53:19;;;;;;;20.40;11.15;;;;;;;;;;6154757;23;20041;-94
2024/03/21 02:55:45;;;;;;;21.20;11.55;;;;;;;;;;6128803;23;20093;-94
2024/03/21 02:58:10;;;;;;;17.50;10.07;;;;;;;;;;6129578;23;20001;-93
2024/03/21 03:00:35;;;;;;;19.58;10.65;;;;;;;;;;6129598;23;20345;-94
2024/03/21 03:03:01;;;;;;;20.85;10.40;;;;;;;;;;6128962;23;20036;-94
2024/03/21 03:05:26;;;;;;;17.85;11.15;;;;;;;;;;6129617;23;20005;-95
2024/03/21 03:07:52;;;;;;;19.25;11.15;;;;;;;;;;6129380;23;20015;-93
2024/03/21 03:10:17;;;;;;;19.63;10.95;;;;;;;;;;6129176;23;20380;-95
2024/03/21 03:12:43;;;;;;;25.48;12.93;;;;;;;;;;6129543;23;19998;-94
2024/03/21 03:15:10;;;;;;;22.45;12.43;;;;;;;;;;6129562;23;19998;-95
2024/03/21 03:17:35;;;;;;;19.08;10.27;;;;;;;;;;6129139;23;20064;-95
2024/03/21 03:20:01;;;;;;;22.70;11.10;;;;;;;;;;6129681;23;20005;-94
2024/03/21 03:22:27;;;;;;;22.00;10.75;;;;;;;;;;6160466;23;20325;-95
2024/03/21 03:24:52;;;;;;;21.75;10.00;;;;;;;;;;6131051;23;19997;-94
2024/03/21 03:27:18;;;;;;;19.67;9.55;;;;;;;;;;6129466;23;20012;-93
2024/03/21 03:29:43;;;;;;;18.38;8.75;;;;;;;;;;6154255;23;20002;-92
2024/03/21 03:32:09;;;;;;;16.67;9.25;;;;;;;;;;6154342;23;20310;-93
2024/03/21 03:37:18;;;;;;;18.58;9.32;;;;;;;;;;6155560;23;20048;-93
2024/03/21 03:39:43;;;;;;;15.07;8.90;;;;;;;;;;6156270;23;20005;-94
2024/03/21 03:42:09;;;;;;;13.63;8.75;;;;;;;;;;6153550;23;20348;-93
2024/03/21 03:44:34;;;;;;;22.73;9.43;;;;;;;;;;6154049;23;19997;-94
2024/03/21 03:47:00;;;;;;;15.40;8.30;;;;;;;;;;6154147;23;20272;-92
2024/03/21 03:49:26;;;;;;;16.85;8.70;;;;;;;;;;6155693;23;20372;-95
2024/03/21 03:51:51;;;;;;;21.48;9.70;;;;;;;;;;6152816;23;20011;-94
2024/03/21 03:54:16;;;;;;;22.75;11.57;;;;;;;;;;6153254;23;20447;-94
2024/03/21 03:56:42;;;;;;;21.60;11.30;;;;;;;;;;6155113;23;20076;-94
2024/03/21 03:59:07;;;;;;;21.33;11.75;;;;;;;;;;6129080;23;20008;-95
2024/03/21 04:01:32;;;;;;;21.10;12.00;;;;;;;;;;6128668;23;20455;-94
2024/03/21 04:03:57;;;;;;;21.40;11.40;;;;;;;;;;6129107;23;20220;-95
2024/03/21 04:06:23;;;;;;;23.38;11.10;;;;;;;;;;6128401;23;20025;-95
2024/03/21 04:08:48;;;;;;;17.92;10.80;;;;;;;;;;6129079;23;20043;-94
2024/03/21 04:11:15;;;;;;;21.35;11.90;;;;;;;;;;6128742;23;20001;-94
2024/03/21 04:13:40;;;;;;;21.90;11.40;;;;;;;;;;6128561;23;20072;-94
2024/03/21 04:16:08;;;;;;;23.45;12.02;;;;;;;;;;6127421;23;20028;-95
2024/03/21 04:18:33;;;;;;;21.17;11.30;;;;;;;;;;6128947;23;20072;-95
2024/03/21 04:20:58;;;;;;;19.45;10.50;;;;;;;;;;6156129;23;20028;-92
2024/03/21 04:23:26;;;;;;;22.00;11.10;;;;;;;;;;6126828;23;20337;-95
2024/03/21 04:25:51;;;;;;;22.15;10.95;;;;;;;;;;6153706;23;20239;-94
2024/03/21 04:28:16;;;;;;;15.93;10.50;;;;;;;;;;6129217;23;20001;-94
2024/03/21 04:30:41;;;;;;;21.38;12.23;;;;;;;;;;6148711;23;20088;-94
2024/03/21 04:33:07;;;;;;;18.50;10.67;;;;;;;;;;6184529;23;20071;-94
2024/03/21 04:35:32;;;;;;;20.75;11.30;;;;;;;;;;6208505;23;20250;-96
2024/03/21 04:37:57;;;;;;;18.52;10.88;;;;;;;;;;6207373;23;20008;-95
2024/03/21 04:40:23;;;;;;;20.73;10.95;;;;;;;;;;6207772;23;20005;-94
2024/03/21 04:42:51;;;;;;;18.98;10.80;;;;;;;;;;6206983;23;20076;-94
2024/03/21 04:45:17;;;;;;;24.40;12.07;;;;;;;;;;6206966;23;20155;-94
2024/03/21 04:47:42;;;;;;;23.90;12.77;;;;;;;;;;6208239;23;20463;-94
2024/03/21 04:50:07;;;;;;;20.70;11.73;;;;;;;;;;6208834;23;20055;-94
2024/03/21 04:52:33;;;;;;;24.52;13.05;;;;;;;;;;6207247;23;20001;-95
2024/03/21 04:54:58;;;;;;;22.17;12.07;;;;;;;;;;6207968;23;19997;-94
2024/03/21 04:57:23;;;;;;;21.42;11.20;;;;;;;;;;6208044;23;20036;-94
2024/03/21 04:59:48;;;;;;;20.88;13.07;;;;;;;;;;6208074;23;19997;-94
2024/03/21 05:02:14;;;;;;;22.40;11.40;;;;;;;;;;6208280;23;20005;-96
2024/03/21 05:04:39;;;;;;;23.05;12.07;;;;;;;;;;6208783;23;20008;-95
2024/03/21 05:07:04;;;;;;;28.35;12.82;;;;;;;;;;6207973;23;20075;-95
2024/03/21 05:09:30;;;;;;;31.27;15.68;;;;;;;;;;6208310;23;20434;-95
2024/03/21 05:11:55;;;;;;;35.53;15.55;;;;;;;;;;6208029;23;20037;-94
2024/03/21 05:14:20;;;;;;;33.90;16.70;;;;;;;;;;6207765;23;19997;-94
2024/03/21 05:16:46;;;;;;;34.70;16.25;;;;;;;;;;6208066;23;20379;-95
2024/03/21 05:19:11;;;;;;;31.27;15.20;;;;;;;;;;6208308;23;20088;-95
2024/03/21 05:21:36;;;;;;;27.95;13.98;;;;;;;;;;6207727;23;20009;-94
2024/03/21 05:24:02;;;;;;;26.25;14.48;;;;;;;;;;6207976;23;20008;-95
2024/03/21 05:26:27;;;;;;;28.17;13.77;;;;;;;;;;6209047;23;20344;-93
2024/03/21 05:28:52;;;;;;;31.27;14.18;;;;;;;;;;6209917;23;20416;-94
2024/03/21 05:31:25;;;;;;;27.40;13.20;;;;;;;;;;6209971;23;20325;-95
2024/03/21 05:33:50;;;;;;;26.10;12.77;;;;;;;;;;6209519;23;19993;-95
2024/03/21 05:36:16;;;;;;;29.25;13.90;;;;;;;;;;6208975;23;20039;-94
2024/03/21 05:38:41;;;;;;;24.42;13.23;;;;;;;;;;6210046;23;20332;-96
2024/03/21 05:41:07;;;;;;;29.27;14.85;;;;;;;;;;6210568;23;20436;-96
2024/03/21 05:43:33;;;;;;;25.70;12.93;;;;;;;;;;6210419;23;20084;-95
2024/03/21 05:45:58;;;;;;;28.23;13.30;;;;;;;;;;6210550;23;20005;-95
2024/03/21 05:48:23;;;;;;;27.35;15.25;;;;;;;;;;6213664;23;20086;-94
2024/03/21 05:50:49;;;;;;;34.40;15.50;;;;;;;;;;6208990;23;20005;-94
2024/03/21 05:53:14;;;;;;;40.78;18.17;;;;;;;;;;6186263;23;20337;-94
2024/03/21 05:55:39;;;;;;;42.13;19.65;;;;;;;;;;6186267;23;20005;-92
2024/03/21 05:58:04;;;;;;;40.72;18.10;;;;;;;;;;6211406;23;20416;-94
2024/03/21 06:00:29;;;;;;;43.63;18.88;;;;;;;;;;6209247;23;20005;-94
2024/03/21 06:02:55;;;;;;;46.20;19.02;;;;;;;;;;6209799;23;20040;-94
2024/03/21 06:05:20;;;;;;;48.10;20.08;;;;;;;;;;6186196;23;19997;-94
2024/03/21 06:07:45;;;;;;;44.88;19.70;;;;;;;;;;6208926;23;20001;-94
2024/03/21 06:10:10;;;;;;;52.45;21.50;;;;;;;;;;6209571;23;20376;-94
2024/03/21 06:12:36;;;;;;;47.80;19.42;;;;;;;;;;6209741;23;20383;-94
2024/03/21 06:15:01;;;;;;;44.05;17.48;;;;;;;;;;6209483;23;20072;-95
2024/03/21 06:17:27;;;;;;;38.70;16.20;;;;;;;;;;6186031;23;20007;-95
2024/03/21 06:19:52;;;;;;;44.42;17.10;;;;;;;;;;6185969;23;20215;-93
2024/03/21 06:22:18;;;;;;;38.10;16.57;;;;;;;;;;6207981;23;20100;-93
2024/03/21 06:24:43;;;;;;;38.92;17.90;;;;;;;;;;6209091;23;20251;-93
2024/03/21 06:27:09;;;;;;;37.42;15.18;;;;;;;;;;6211309;23;20001;-95
2024/03/21 06:29:34;;;;;;;33.85;15.73;;;;;;;;;;6185599;23;19989;-91
2024/03/21 06:32:00;;;;;;;35.15;17.65;;;;;;;;;;6156137;23;20009;-91
2024/03/21 06:34:25;;;;;;;31.35;14.98;;;;;;;;;;6155522;23;20056;-91
2024/03/21 06:36:50;;;;;;;34.47;16.73;;;;;;;;;;6153988;23;20491;-90
2024/03/21 06:39:15;;;;;;;33.97;14.97;;;;;;;;;;6154947;23;20283;-90
2024/03/21 06:41:41;;;;;;;36.27;17.67;;;;;;;;;;6154936;23;20261;-92
2024/03/21 06:44:06;;;;;;;34.50;16.73;;;;;;;;;;6129036;23;20251;-91
2024/03/21 06:46:31;;;;;;;27.83;15.13;;;;;;;;;;6155558;23;20235;-92
2024/03/21 06:48:56;;;;;;;30.73;15.53;;;;;;;;;;6155247;23;20215;-91
2024/03/21 06:51:21;;;;;;;30.23;16.20;;;;;;;;;;6129664;23;20238;-96
2024/03/21 06:53:47;;;;;;;34.10;16.40;;;;;;;;;;6130070;23;20583;-94
2024/03/21 06:56:12;;;;;;;32.90;16.00;;;;;;;;;;6155397;23;20002;-92
2024/03/21 06:58:37;;;;;;;29.00;14.47;;;;;;;;;;6156078;23;20303;-94
2024/03/21 07:01:02;;;;;;;30.70;15.07;;;;;;;;;;6130271;23;20275;-95
2024/03/21 07:03:28;;;;;;;28.55;13.90;;;;;;;;;;6129083;23;20717;-93
2024/03/21 07:05:53;;;;;;;24.50;12.77;;;;;;;;;;6128277;23;20389;-93
2024/03/21 07:08:18;;;;;;;28.98;13.23;;;;;;;;;;6129416;23;20220;-93
2024/03/21 07:10:45;;;;;;;25.10;12.43;;;;;;;;;;6127787;23;20300;-92
2024/03/21 07:13:10;;;;;;;27.65;13.60;;;;;;;;;;6127475;23;20076;-94
2024/03/21 07:15:40;;;;;;;28.73;14.02;;;;;;;;;;6129595;23;20010;-94
2024/03/21 07:18:05;;;;;;;28.17;14.57;;;;;;;;;;6123723;23;20436;-95
2024/03/21 07:20:30;;;;;;;30.25;14.93;;;;;;;;;;6126482;23;20012;-94
2024/03/21 07:22:55;;;;;;;29.40;14.32;;;;;;;;;;6129119;23;20008;-94
2024/03/21 07:25:21;;;;;;;22.55;11.40;;;;;;;;;;6129292;23;20008;-96
2024/03/21 07:27:47;;;;;;;28.35;12.68;;;;;;;;;;6129187;23;20076;-93
2024/03/21 07:30:15;;;;;;;22.75;12.00;;;;;;;;;;6136489;23;20004;-93
2024/03/21 07:32:41;;;;;;;21.95;11.30;;;;;;;;;;6207865;23;20073;-93
2024/03/21 07:35:06;;;;;;;24.40;10.50;;;;;;;;;;6210297;23;20519;-95
2024/03/21 07:37:32;;;;;;;20.70;10.68;;;;;;;;;;6207978;23;20701;-94
2024/03/21 07:40:01;;;;;;;22.10;10.07;;;;;;;;;;6211274;23;20000;-93
2024/03/21 07:42:26;;;;;;;20.80;10.38;;;;;;;;;;6208168;23;20375;-95
2024/03/21 07:44:51;;;;;;;23.25;10.27;;;;;;;;;;6208113;23;20055;-93
2024/03/21 07:47:17;;;;;;;19.30;10.05;;;;;;;;;;6208201;23;20075;-93
2024/03/21 07:49:42;;;;;;;19.53;10.97;;;;;;;;;;6208374;23;19997;-94
2024/03/21 07:52:07;;;;;;;22.70;10.95;;;;;;;;;;6208508;23;20357;-96
2024/03/21 07:54:33;;;;;;;20.05;11.07;;;;;;;;;;6209038;23;20413;-96
2024/03/21 07:57:00;;;;;;;24.65;11.98;;;;;;;;;;6209472;23;20083;-94
2024/03/21 07:59:25;;;;;;;23.00;11.32;;;;;;;;;;6184332;23;20013;-96
2024/03/21 08:01:51;;;;;;;21.77;11.65;;;;;;;;;;6209049;23;20009;-95
2024/03/21 08:04:16;;;;;;;20.40;11.27;;;;;;;;;;6213787;23;19997;-96
2024/03/21 08:06:42;;;;;;;20.27;10.77;;;;;;;;;;6209304;23;20001;-96
2024/03/21 08:09:09;;;;;;;15.57;10.05;;;;;;;;;;6209294;23;20029;-94
2024/03/21 08:11:34;;;;;;;14.70;9.55;;;;;;;;;;6209353;23;20001;-94
2024/03/21 08:14:00;;;;;;;17.80;10.30;;;;;;;;;;6209381;23;20089;-95
2024/03/21 08:16:25;;;;;;;17.48;10.77;;;;;;;;;;6209119;23;20013;-96
2024/03/21 08:18:51;;;;;;;19.25;9.50;;;;;;;;;;6209386;23;20403;-96
2024/03/21 08:21:18;;;;;;;18.75;8.52;;;;;;;;;;6208226;23;20005;-96
2024/03/21 08:23:43;;;;;;;17.08;8.57;;;;;;;;;;6209581;23;20043;-95
2024/03/21 08:26:08;;;;;;;11.57;7.20;;;;;;;;;;6209480;23;20001;-95
2024/03/21 08:28:33;;;;;;;14.55;7.22;;;;;;;;;;6209181;23;20088;-95
2024/03/21 08:30:59;;;;;;;19.30;7.70;;;;;;;;;;6209263;23;20009;-95
2024/03/21 08:33:24;;;;;;;21.25;10.48;;;;;;;;;;6208712;23;20005;-96
2024/03/21 08:35:50;;;;;;;16.05;7.43;;;;;;;;;;6208511;23;20136;-95
2024/03/21 08:38:15;;;;;;;14.90;6.68;;;;;;;;;;6209409;23;20008;-96
2024/03/21 08:40:48;;;;;;;13.65;7.25;;;;;;;;;;6209095;23;20004;-95
2024/03/21 08:43:13;;;;;;;16.20;7.18;;;;;;;;;;6210072;23;20001;-96
2024/03/21 08:45:38;;;;;;;17.60;6.95;;;;;;;;;;6210147;23;20084;-96
2024/03/21 08:48:04;;;;;;;11.95;6.50;;;;;;;;;;6210300;23;19993;-95
2024/03/21 08:50:30;;;;;;;12.75;6.28;;;;;;;;;;6208585;23;20340;-96
2024/03/21 08:52:55;;;;;;;14.03;6.00;;;;;;;;;;6209881;23;20136;-94
2024/03/21 08:55:21;;;;;;;11.75;5.90;;;;;;;;;;6209473;23;20227;-95
2024/03/21 08:57:46;;;;;;;12.85;6.72;;;;;;;;;;6207702;23;20028;-94
2024/03/21 09:00:14;;;;;;;12.80;6.13;;;;;;;;;;6186284;23;20036;-93
2024/03/21 09:02:40;;;;;;;9.15;5.97;;;;;;;;;;6214217;23;20036;-94
2024/03/21 09:05:05;;;;;;;8.93;5.47;;;;;;;;;;6210133;23;19997;-95
2024/03/21 09:07:30;;;;;;;9.88;5.05;;;;;;;;;;6210233;23;20005;-94
2024/03/21 09:09:56;;;;;;;9.73;5.75;;;;;;;;;;6210627;23;20115;-94
2024/03/21 09:12:21;;;;;;;22.17;7.57;;;;;;;;;;6185731;23;20301;-90
2024/03/21 09:14:46;;;;;;;12.57;6.38;;;;;;;;;;6185940;23;20443;-93
2024/03/21 09:17:11;;;;;;;16.00;6.40;;;;;;;;;;6184539;23;20061;-96
2024/03/21 09:19:36;;;;;;;13.57;6.25;;;;;;;;;;6211060;23;20625;-92
2024/03/21 09:22:02;;;;;;;11.95;5.68;;;;;;;;;;6184870;23;20016;-95
2024/03/21 09:24:30;;;;;;;9.48;5.20;;;;;;;;;;6213023;23;20027;-93
2024/03/21 09:26:55;;;;;;;10.10;5.22;;;;;;;;;;6210596;23;20023;-96
2024/03/21 09:29:21;;;;;;;9.80;5.10;;;;;;;;;;6211371;23;20405;-94
2024/03/21 09:31:46;;;;;;;12.07;5.87;;;;;;;;;;6160906;23;20051;-96
2024/03/21 09:34:11;;;;;;;8.88;5.72;;;;;;;;;;6153561;23;20228;-94
2024/03/21 09:36:37;;;;;;;9.23;4.70;;;;;;;;;;6154732;23;20422;-94
2024/03/21 09:39:02;;;;;;;8.35;4.38;;;;;;;;;;6130789;23;19997;-92
2024/03/21 09:41:30;;;;;;;6.50;4.40;;;;;;;;;;6155954;23;20009;-91
2024/03/21 09:43:58;;;;;;;10.60;4.50;;;;;;;;;;6130130;23;20001;-95
2024/03/21 09:46:24;;;;;;;5.75;4.50;;;;;;;;;;6155063;23;20509;-94
2024/03/21 09:48:49;;;;;;;8.80;4.38;;;;;;;;;;6155537;23;20028;-94
2024/03/21 09:51:21;;;;;;;6.93;3.67;;;;;;;;;;6153949;23;20365;-94
2024/03/21 09:53:47;;;;;;;8.15;4.68;;;;;;;;;;6151540;23;20009;-93
2024/03/21 09:56:14;;;;;;;8.13;4.40;;;;;;;;;;6149732;23;20230;-94
2024/03/21 09:58:40;;;;;;;5.53;4.18;;;;;;;;;;6148538;23;20061;-93
2024/03/21 10:01:15;;;;;;;8.60;4.88;;;;;;;;;;6150311;23;20433;-93
2024/03/21 10:03:40;;;;;;;6.60;4.53;;;;;;;;;;6123135;23;20080;-91
2024/03/21 10:06:05;;;;;;;7.60;4.78;;;;;;;;;;6123457;23;20428;-93
2024/03/21 10:08:31;;;;;;;5.97;4.53;;;;;;;;;;6153760;23;20337;-92
2024/03/21 10:10:58;;;;;;;9.05;4.43;;;;;;;;;;6153193;23;20601;-92
2024/03/21 10:13:23;;;;;;;12.05;5.40;;;;;;;;;;6152107;23;20005;-91
2024/03/21 10:15:48;;;;;;;10.05;4.50;;;;;;;;;;6153929;23;20063;-92
2024/03/21 10:18:14;;;;;;;8.87;4.77;;;;;;;;;;6154291;23;20332;-92
2024/03/21 10:20:39;;;;;;;7.93;4.22;;;;;;;;;;6126134;23;20745;-92
2024/03/21 10:23:04;;;;;;;8.93;4.60;;;;;;;;;;6152797;23;20004;-94
2024/03/21 10:25:34;;;;;;;7.45;4.50;;;;;;;;;;6150421;23;20232;-91
2024/03/21 10:27:59;;;;;;;7.15;4.03;;;;;;;;;;6152670;23;20332;-92
2024/03/21 10:30:25;;;;;;;5.45;3.55;;;;;;;;;;6152231;23;20029;-91
2024/03/21 10:32:51;;;;;;;6.50;3.65;;;;;;;;;;6152486;23;20005;-90
2024/03/21 10:35:17;;;;;;;9.55;4.75;;;;;;;;;;6152302;23;20005;-91
2024/03/21 10:37:43;;;;;;;8.07;3.90;;;;;;;;;;6153018;23;19997;-91
2024/03/21 10:40:13;;;;;;;6.97;3.40;;;;;;;;;;6152916;23;20048;-90
2024/03/21 10:42:40;;;;;;;7.43;3.25;;;;;;;;;;6151486;23;20009;-90
2024/03/21 10:45:05;;;;;;;8.25;3.58;;;;;;;;;;6152616;23;20065;-90
2024/03/21 10:47:31;;;;;;;5.63;3.33;;;;;;;;;;6153019;23;20033;-90
2024/03/21 10:49:56;;;;;;;5.72;3.30;;;;;;;;;;6150541;23;20320;-95
2024/03/21 10:52:22;;;;;;;3.97;2.70;;;;;;;;;;6148436;23;20387;-93
2024/03/21 10:54:53;;;;;;;7.15;3.70;;;;;;;;;;6152571;23;20298;-96
2024/03/21 10:57:19;;;;;;;;;;;;;;;;;;6151663;23;20005;-95
2024/03/21 10:59:55;;;;;;;9.57;3.23;;;;;;;;;;6131194;23;20312;-95
2024/03/21 11:02:20;;;;;;;6.72;3.17;;;;;;;;;;6155387;23;20013;-96
2024/03/21 11:04:45;;;;;;;4.43;3.17;;;;;;;;;;6155175;23;20000;-95
2024/03/21 11:07:17;;;;;;;8.10;3.47;;;;;;;;;;6154028;23;20231;-94
2024/03/21 11:09:42;;;;;;;6.68;3.53;;;;;;;;;;6154202;23;20235;-96
2024/03/21 11:12:08;;;;;;;8.02;3.35;;;;;;;;;;6154347;23;20040;-93
2024/03/21 11:14:33;;;;;;;5.45;3.03;;;;;;;;;;6155252;23;20048;-94
2024/03/21 11:16:59;;;;;;;7.22;3.33;;;;;;;;;;6155516;23;19998;-95
2024/03/21 11:19:24;;;;;;;7.93;3.00;;;;;;;;;;6153671;23;20440;-95
2024/03/21 11:21:49;;;;;;;5.18;2.67;;;;;;;;;;6154726;23;20574;-95
2024/03/21 11:24:17;;;;;;;3.42;2.33;;;;;;;;;;6154165;23;20485;-94
2024/03/21 11:26:42;;;;;;;5.70;2.80;;;;;;;;;;6153776;23;20006;-93
2024/03/21 11:29:12;;;;;;;6.37;2.30;;;;;;;;;;6154849;23;19997;-95
2024/03/21 11:31:40;;;;;;;4.93;2.75;;;;;;;;;;6197731;23;20235;-95
2024/03/21 11:34:05;;;;;;;7.82;3.28;;;;;;;;;;6185602;23;20087;-94
2024/03/21 11:36:31;;;;;;;5.22;2.80;;;;;;;;;;6209035;23;20428;-95
2024/03/21 11:38:56;;;;;;;6.85;2.65;;;;;;;;;;6185543;23;20348;-94
2024/03/21 11:41:22;;;;;;;4.35;2.08;;;;;;;;;;6208694;23;20075;-96
2024/03/21 11:43:47;;;;;;;7.32;2.53;;;;;;;;;;6208855;23;20047;-95
2024/03/21 11:46:13;;;;;;;4.07;2.37;;;;;;;;;;6185521;23;20324;-92
2024/03/21 11:48:38;;;;;;;4.68;2.50;;;;;;;;;;6208347;23;20536;-95
2024/03/21 11:51:03;;;;;;;6.65;2.97;;;;;;;;;;6187515;23;20091;-95
2024/03/21 11:53:29;;;;;;;4.57;2.40;;;;;;;;;;6208593;23;19997;-95
2024/03/21 11:55:54;;;;;;;5.33;2.37;;;;;;;;;;6212110;23;20059;-96
2024/03/21 11:58:19;;;;;;;3.95;2.92;;;;;;;;;;6207750;23;20231;-96
2024/03/21 12:00:44;;;;;;;6.25;2.35;;;;;;;;;;6208317;23;20096;-96
2024/03/21 12:03:11;;;;;;;6.55;2.85;;;;;;;;;;6207435;23;20001;-94
2024/03/21 12:05:36;;;;;;;9.30;3.47;;;;;;;;;;6211009;23;20001;-94
2024/03/21 12:08:02;;;;;;;4.53;2.20;;;;;;;;;;6208574;23;20336;-96
2024/03/21 12:10:27;;;;;;;5.43;2.00;;;;;;;;;;6208139;23;20223;-96
2024/03/21 12:12:53;;;;;;;4.37;2.40;;;;;;;;;;6208620;23;20494;-95
2024/03/21 12:15:18;;;;;;;4.78;1.85;;;;;;;;;;6208523;23;20263;-96
2024/03/21 12:17:44;;;;;;;3.90;2.20;;;;;;;;;;6208266;23;20001;-93
2024/03/21 12:20:09;;;;;;;3.67;2.17;;;;;;;;;;6204714;23;20001;-92
2024/03/21 12:22:34;;;;;;;5.10;2.38;;;;;;;;;;6184402;23;20230;-95
2024/03/21 12:25:00;;;;;;;2.75;2.10;;;;;;;;;;6181282;23;20008;-96
2024/03/21 12:27:26;;;;;;;3.35;1.70;;;;;;;;;;6206185;23;20466;-94
2024/03/21 12:29:51;;;;;;;5.18;2.70;;;;;;;;;;6205554;23;20063;-94
2024/03/21 12:32:16;;;;;;;5.00;2.40;;;;;;;;;;6151438;23;20396;-95
2024/03/21 12:34:42;;;;;;;4.68;2.17;;;;;;;;;;6151405;23;19998;-94
2024/03/21 12:37:11;;;;;;;5.28;2.13;;;;;;;;;;6154017;23;20029;-95
2024/03/21 12:39:36;;;;;;;5.07;2.33;;;;;;;;;;6152754;23;20011;-94
2024/03/21 12:42:04;;;;;;;4.93;2.55;;;;;;;;;;6153072;23;20424;-95
2024/03/21 12:44:29;;;;;;;4.75;2.92;;;;;;;;;;6151481;23;20024;-96
2024/03/21 12:46:55;;;;;;;5.13;3.63;;;;;;;;;;6152344;23;20005;-95
2024/03/21 12:49:20;;;;;;;4.68;2.78;;;;;;;;;;6151011;23;20302;-95
2024/03/21 12:51:45;;;;;;;4.07;2.50;;;;;;;;;;6156887;23;20002;-95
2024/03/21 12:54:11;;;;;;;4.45;2.47;;;;;;;;;;6154985;23;20438;-96
2024/03/21 12:56:36;;;;;;;7.50;2.40;;;;;;;;;;6156368;23;20421;-96
2024/03/21 12:59:01;;;;;;;4.88;2.00;;;;;;;;;;6154686;23;20282;-96
2024/03/21 13:01:26;;;;;;;3.67;2.40;;;;;;;;;;6154226;23;20336;-94
2024/03/21 13:03:52;;;;;;;5.93;2.30;;;;;;;;;;6154292;23;20734;-96
2024/03/21 13:06:17;;;;;;;8.13;2.30;;;;;;;;;;6154269;23;20374;-95
2024/03/21 13:08:42;;;;;;;2.77;1.73;;;;;;;;;;6153815;23;20240;-95
2024/03/21 13:11:07;;;;;;;5.33;1.97;;;;;;;;;;6154368;23;20228;-95
2024/03/21 13:13:32;;;;;;;6.50;2.47;;;;;;;;;;6154162;23;20275;-95
2024/03/21 13:15:58;;;;;;;4.40;1.80;;;;;;;;;;6154610;23;19998;-95
2024/03/21 13:18:23;;;;;;;3.30;1.85;;;;;;;;;;6154282;23;20227;-96
2024/03/21 13:20:48;;;;;;;8.25;2.63;;;;;;;;;;6154264;23;20008;-95
2024/03/21 13:23:14;;;;;;;4.22;2.00;;;;;;;;;;6153943;23;20441;-94
2024/03/21 13:25:40;;;;;;;5.57;2.65;;;;;;;;;;6154160;23;20028;-95
2024/03/21 13:28:06;;;;;;;4.70;1.95;;;;;;;;;;6157160;23;19998;-95
2024/03/21 13:30:32;;;;;;;9.18;2.20;;;;;;;;;;6176550;23;20005;-95
2024/03/21 13:32:58;;;;;;;5.20;2.50;;;;;;;;;;6209001;23;19997;-95
2024/03/21 13:35:24;;;;;;;4.72;2.40;;;;;;;;;;6209022;23;20040;-95
2024/03/21 13:37:49;;;;;;;5.32;2.47;;;;;;;;;;6208517;23;20023;-95
2024/03/21 13:40:15;;;;;;;6.75;3.03;;;;;;;;;;6208391;23;20001;-94
2024/03/21 13:42:41;;;;;;;3.00;2.20;;;;;;;;;;6208742;23;20016;-95
2024/03/21 13:45:08;;;;;;;7.57;3.20;;;;;;;;;;6208486;23;19993;-94
2024/03/21 13:47:35;;;;;;;6.88;3.35;;;;;;;;;;6209783;23;20340;-95
2024/03/21 13:50:00;;;;;;;7.22;3.10;;;;;;;;;;6210498;23;20001;-95
2024/03/21 13:52:26;;;;;;;6.97;3.15;;;;;;;;;;6210894;23;20000;-95
2024/03/21 13:54:54;;;;;;;6.22;3.22;;;;;;;;;;6186841;23;20004;-95
2024/03/21 13:57:19;;;;;;;8.73;3.88;;;;;;;;;;6210602;23;20051;-95
2024/03/21 13:59:46;;;;;;;4.80;3.23;;;;;;;;;;6210052;23;20092;-95
2024/03/21 14:02:11;;;;;;;5.65;3.45;;;;;;;;;;6209702;23;20779;-96
2024/03/21 14:04:37;;;;;;;6.77;3.43;;;;;;;;;;6210410;23;20001;-94
2024/03/21 14:07:02;;;;;;;6.70;3.55;;;;;;;;;;6210030;23;20285;-94
2024/03/21 14:09:27;;;;;;;6.82;3.67;;;;;;;;;;6210331;23;19998;-95
2024/03/21 14:11:53;;;;;;;7.73;3.63;;;;;;;;;;6210172;23;20005;-96
2024/03/21 14:14:18;;;;;;;6.35;3.42;;;;;;;;;;6186695;23;20242;-94
2024/03/21 14:16:43;;;;;;;6.73;4.07;;;;;;;;;;6185002;23;21165;-95
2024/03/21 14:19:09;;;;;;;7.20;3.93;;;;;;;;;;6210076;23;20220;-95
2024/03/21 14:21:34;;;;;;;8.98;4.07;;;;;;;;;;6210052;23;20251;-95
2024/03/21 14:23:59;;;;;;;14.23;4.63;;;;;;;;;;6210864;23;20000;-95